sensor_id;sensor_type;location;lat;lon;timestamp;P1;durP1;ratioP1;P2;durP2;ratioP2
595;SDS011;19946;49.306;11.350;2024-02-21T01:54:42;6.20;;;6.10;;
595;SDS011;19946;49.306;11.350;2024-02-21T01:57:43;5.90;;;5.80;;
595;SDS011;19946;49.306;11.350;2024-02-21T03:40:05;6.97;;;6.87;;
595;SDS011;19946;49.306;11.350;2024-02-21T03:43:07;5.83;;;5.63;;
595;SDS011;19946;49.306;11.350;2024-02-21T03:49:40;6.90;;;6.80;;
595;SDS011;19946;49.306;11.350;2024-02-21T04:22:43;15.70;;;11.27;;
595;SDS011;19946;49.306;11.350;2024-02-21T10:35:51;3.03;;;3.03;;
595;SDS011;19946;49.306;11.350;2024-02-21T10:38:51;2.70;;;2.70;;
595;SDS011;19946;49.306;11.350;2024-02-21T10:55:03;2.50;;;2.50;;
595;SDS011;19946;49.306;11.350;2024-02-21T10:58:09;2.60;;;2.60;;
595;SDS011;19946;49.306;11.350;2024-02-21T11:50:12;3.80;;;3.13;;
595;SDS011;19946;49.306;11.350;2024-02-21T11:53:12;2.20;;;2.20;;
595;SDS011;19946;49.306;11.350;2024-02-21T11:56:13;2.10;;;2.10;;
595;SDS011;19946;49.306;11.350;2024-02-21T11:59:14;2.00;;;2.00;;
595;SDS011;19946;49.306;11.350;2024-02-21T12:02:15;2.20;;;2.20;;
595;SDS011;19946;49.306;11.350;2024-02-21T12:16:12;1.80;;;1.80;;
595;SDS011;19946;49.306;11.350;2024-02-21T12:23:20;2.23;;;2.23;;
595;SDS011;19946;49.306;11.350;2024-02-21T12:26:20;2.30;;;2.30;;
595;SDS011;19946;49.306;11.350;2024-02-21T13:10:17;2.57;;;2.57;;
595;SDS011;19946;49.306;11.350;2024-02-21T13:13:18;2.13;;;2.13;;
595;SDS011;19946;49.306;11.350;2024-02-21T13:16:18;2.13;;;2.13;;
595;SDS011;19946;49.306;11.350;2024-02-21T13:19:19;2.07;;;2.07;;
595;SDS011;19946;49.306;11.350;2024-02-21T13:22:19;2.00;;;2.00;;
595;SDS011;19946;49.306;11.350;2024-02-21T13:25:22;2.10;;;2.10;;
595;SDS011;19946;49.306;11.350;2024-02-21T13:28:22;2.10;;;2.10;;
595;SDS011;19946;49.306;11.350;2024-02-21T13:31:22;1.93;;;1.93;;
595;SDS011;19946;49.306;11.350;2024-02-21T13:34:24;2.13;;;2.13;;
595;SDS011;19946;49.306;11.350;2024-02-21T13:37:25;1.90;;;1.90;;
595;SDS011;19946;49.306;11.350;2024-02-21T13:40:27;1.80;;;1.80;;
595;SDS011;19946;49.306;11.350;2024-02-21T13:43:27;2.00;;;2.00;;
595;SDS011;19946;49.306;11.350;2024-02-21T13:46:27;1.80;;;1.80;;
595;SDS011;19946;49.306;11.350;2024-02-21T13:49:28;2.30;;;2.30;;
595;SDS011;19946;49.306;11.350;2024-02-21T13:52:28;1.70;;;1.70;;
595;SDS011;19946;49.306;11.350;2024-02-21T13:55:29;1.70;;;1.70;;
595;SDS011;19946;49.306;11.350;2024-02-21T13:58:29;1.90;;;1.90;;
595;SDS011;19946;49.306;11.350;2024-02-21T14:01:29;1.70;;;1.70;;
595;SDS011;19946;49.306;11.350;2024-02-21T14:04:31;1.80;;;1.80;;
595;SDS011;19946;49.306;11.350;2024-02-21T14:07:32;1.70;;;1.70;;
595;SDS011;19946;49.306;11.350;2024-02-21T14:10:36;1.67;;;1.67;;
595;SDS011;19946;49.306;11.350;2024-02-21T14:13:37;1.60;;;1.60;;
595;SDS011;19946;49.306;11.350;2024-02-21T14:16:37;1.80;;;1.80;;
595;SDS011;19946;49.306;11.350;2024-02-21T14:19:38;1.40;;;1.40;;
595;SDS011;19946;49.306;11.350;2024-02-21T14:22:38;1.80;;;1.80;;
595;SDS011;19946;49.306;11.350;2024-02-21T14:25:38;1.60;;;1.60;;
595;SDS011;19946;49.306;11.350;2024-02-21T14:28:39;1.80;;;1.80;;
595;SDS011;19946;49.306;11.350;2024-02-21T14:31:40;1.60;;;1.60;;
595;SDS011;19946;49.306;11.350;2024-02-21T14:34:40;1.50;;;1.50;;
595;SDS011;19946;49.306;11.350;2024-02-21T14:37:41;1.40;;;1.40;;
595;SDS011;19946;49.306;11.350;2024-02-21T14:40:41;1.50;;;1.50;;
595;SDS011;19946;49.306;11.350;2024-02-21T14:43:43;1.23;;;1.23;;
595;SDS011;19946;49.306;11.350;2024-02-21T14:46:43;1.30;;;1.30;;
595;SDS011;19946;49.306;11.350;2024-02-21T14:49:44;1.30;;;1.30;;
595;SDS011;19946;49.306;11.350;2024-02-21T14:52:44;1.40;;;1.40;;
595;SDS011;19946;49.306;11.350;2024-02-21T14:55:44;1.30;;;1.30;;
595;SDS011;19946;49.306;11.350;2024-02-21T14:58:44;1.60;;;1.60;;
595;SDS011;19946;49.306;11.350;2024-02-21T15:01:47;1.60;;;1.60;;
595;SDS011;19946;49.306;11.350;2024-02-21T15:04:47;1.17;;;1.17;;
595;SDS011;19946;49.306;11.350;2024-02-21T15:07:47;1.00;;;1.00;;
595;SDS011;19946;49.306;11.350;2024-02-21T15:10:48;1.10;;;1.10;;
595;SDS011;19946;49.306;11.350;2024-02-21T15:13:50;0.90;;;0.90;;
595;SDS011;19946;49.306;11.350;2024-02-21T15:16:50;1.30;;;1.30;;
595;SDS011;19946;49.306;11.350;2024-02-21T15:19:51;0.90;;;0.90;;
595;SDS011;19946;49.306;11.350;2024-02-21T15:22:54;0.70;;;0.70;;
595;SDS011;19946;49.306;11.350;2024-02-21T15:25:55;0.70;;;0.70;;
595;SDS011;19946;49.306;11.350;2024-02-21T15:28:55;0.80;;;0.80;;
595;SDS011;19946;49.306;11.350;2024-02-21T15:31:56;0.70;;;0.70;;
595;SDS011;19946;49.306;11.350;2024-02-21T15:34:56;0.70;;;0.70;;
595;SDS011;19946;49.306;11.350;2024-02-21T15:37:57;0.60;;;0.60;;
595;SDS011;19946;49.306;11.350;2024-02-21T15:40:57;0.60;;;0.60;;
595;SDS011;19946;49.306;11.350;2024-02-21T15:43:58;0.70;;;0.70;;
595;SDS011;19946;49.306;11.350;2024-02-21T15:46:59;0.77;;;0.77;;
595;SDS011;19946;49.306;11.350;2024-02-21T15:49:59;0.60;;;0.60;;
595;SDS011;19946;49.306;11.350;2024-02-21T15:53:01;0.60;;;0.60;;
595;SDS011;19946;49.306;11.350;2024-02-21T15:56:02;0.60;;;0.60;;
595;SDS011;19946;49.306;11.350;2024-02-21T15:59:03;0.70;;;0.70;;
595;SDS011;19946;49.306;11.350;2024-02-21T16:02:05;0.60;;;0.60;;
595;SDS011;19946;49.306;11.350;2024-02-21T16:05:06;0.60;;;0.60;;
595;SDS011;19946;49.306;11.350;2024-02-21T16:08:09;0.60;;;0.60;;
595;SDS011;19946;49.306;11.350;2024-02-21T16:11:15;0.60;;;0.60;;
595;SDS011;19946;49.306;11.350;2024-02-21T16:14:16;0.50;;;0.50;;
595;SDS011;19946;49.306;11.350;2024-02-21T16:17:17;0.50;;;0.50;;
595;SDS011;19946;49.306;11.350;2024-02-21T16:20:17;0.40;;;0.40;;
595;SDS011;19946;49.306;11.350;2024-02-21T16:23:17;0.50;;;0.50;;
595;SDS011;19946;49.306;11.350;2024-02-21T16:26:18;0.40;;;0.40;;
595;SDS011;19946;49.306;11.350;2024-02-21T16:29:18;0.40;;;0.40;;
595;SDS011;19946;49.306;11.350;2024-02-21T16:32:19;0.40;;;0.40;;
595;SDS011;19946;49.306;11.350;2024-02-21T16:35:19;0.40;;;0.40;;
595;SDS011;19946;49.306;11.350;2024-02-21T16:38:20;0.60;;;0.60;;
595;SDS011;19946;49.306;11.350;2024-02-21T16:41:20;0.53;;;0.53;;
595;SDS011;19946;49.306;11.350;2024-02-21T16:44:21;0.50;;;0.50;;
595;SDS011;19946;49.306;11.350;2024-02-21T16:47:22;0.43;;;0.43;;
595;SDS011;19946;49.306;11.350;2024-02-21T16:50:24;0.50;;;0.50;;
595;SDS011;19946;49.306;11.350;2024-02-21T16:53:24;0.70;;;0.70;;
595;SDS011;19946;49.306;11.350;2024-02-21T16:56:25;0.40;;;0.40;;
595;SDS011;19946;49.306;11.350;2024-02-21T16:59:25;0.40;;;0.40;;
595;SDS011;19946;49.306;11.350;2024-02-21T17:02:25;0.40;;;0.40;;
595;SDS011;19946;49.306;11.350;2024-02-21T17:05:26;0.60;;;0.60;;
595;SDS011;19946;49.306;11.350;2024-02-21T17:08:26;0.40;;;0.40;;
595;SDS011;19946;49.306;11.350;2024-02-21T17:11:28;0.47;;;0.47;;
595;SDS011;19946;49.306;11.350;2024-02-21T17:14:28;0.60;;;0.60;;
595;SDS011;19946;49.306;11.350;2024-02-21T17:17:29;0.50;;;0.50;;
595;SDS011;19946;49.306;11.350;2024-02-21T17:20:29;0.40;;;0.40;;
595;SDS011;19946;49.306;11.350;2024-02-21T17:23:30;0.40;;;0.40;;
595;SDS011;19946;49.306;11.350;2024-02-21T17:26:31;0.50;;;0.50;;
595;SDS011;19946;49.306;11.350;2024-02-21T17:29:31;0.40;;;0.40;;
595;SDS011;19946;49.306;11.350;2024-02-21T17:32:32;0.50;;;0.50;;
595;SDS011;19946;49.306;11.350;2024-02-21T17:35:34;0.50;;;0.50;;
595;SDS011;19946;49.306;11.350;2024-02-21T17:38:35;0.50;;;0.50;;
595;SDS011;19946;49.306;11.350;2024-02-21T17:41:35;0.50;;;0.50;;
595;SDS011;19946;49.306;11.350;2024-02-21T17:44:36;0.40;;;0.40;;
595;SDS011;19946;49.306;11.350;2024-02-21T17:47:38;0.50;;;0.50;;
595;SDS011;19946;49.306;11.350;2024-02-21T17:50:39;0.50;;;0.50;;
595;SDS011;19946;49.306;11.350;2024-02-21T17:53:39;0.50;;;0.50;;
595;SDS011;19946;49.306;11.350;2024-02-21T17:56:40;0.40;;;0.40;;
595;SDS011;19946;49.306;11.350;2024-02-21T17:59:41;0.40;;;0.40;;
595;SDS011;19946;49.306;11.350;2024-02-21T18:02:42;0.40;;;0.40;;
595;SDS011;19946;49.306;11.350;2024-02-21T18:05:43;0.40;;;0.40;;
595;SDS011;19946;49.306;11.350;2024-02-21T18:08:44;0.30;;;0.30;;
595;SDS011;19946;49.306;11.350;2024-02-21T18:11:45;0.30;;;0.30;;
595;SDS011;19946;49.306;11.350;2024-02-21T18:14:45;0.33;;;0.33;;
595;SDS011;19946;49.306;11.350;2024-02-21T18:17:46;0.30;;;0.30;;
